Time;durP1;ratioP1;P1;durP2;ratioP2;P2;SDS_P1;SDS_P2;PMS_P1;PMS_P2;Temp;Humidity;BMP_temperature;BMP_pressure;BME280_temperature;BME280_humidity;BME280_pressure;Samples;Min_cycle;Max_cycle;Signal;HPM_P1;HPM_P2
2023/11/04 00:01:12;;;;;;;2.13;1.23;;;9.10;99.90;;;;;;5048608;28;20843;-68
2023/11/04 00:03:39;;;;;;;3.63;1.40;;;9.10;99.90;;;;;;5054619;28;20036;-68
2023/11/04 00:06:05;;;;;;;4.05;1.50;;;9.10;99.90;;;;;;5058186;28;20282;-67
2023/11/04 00:08:31;;;;;;;4.45;1.52;;;9.10;99.90;;;;;;5062183;28;20051;-69
2023/11/04 00:10:56;;;;;;;2.13;1.13;;;9.10;99.90;;;;;;5051689;28;20032;-68
2023/11/04 00:13:22;;;;;;;2.90;1.60;;;9.10;99.90;;;;;;5051942;28;20037;-69
2023/11/04 00:15:47;;;;;;;1.77;1.00;;;9.10;99.90;;;;;;5054058;28;20083;-68
2023/11/04 00:18:13;;;;;;;4.73;1.20;;;9.10;99.90;;;;;;5057314;28;20078;-68
2023/11/04 00:20:39;;;;;;;4.17;1.03;;;9.10;99.90;;;;;;5052870;28;20029;-68
2023/11/04 00:23:05;;;;;;;2.20;0.80;;;9.10;99.90;;;;;;5058684;28;20295;-67
2023/11/04 00:25:30;;;;;;;2.30;1.00;;;9.10;99.90;;;;;;5063893;28;20480;-67
2023/11/04 00:27:56;;;;;;;1.60;0.93;;;9.10;99.90;;;;;;5060599;28;20033;-68
2023/11/04 00:30:22;;;;;;;2.15;1.05;;;9.10;99.90;;;;;;5053932;28;20087;-68
2023/11/04 00:32:48;;;;;;;1.27;0.80;;;9.10;99.90;;;;;;5054227;28;20401;-68
2023/11/04 00:35:14;;;;;;;2.17;1.10;;;9.10;99.90;;;;;;5065375;28;20027;-67
2023/11/04 00:37:40;;;;;;;5.45;1.67;;;9.20;99.90;;;;;;5051273;28;20032;-68
2023/11/04 00:40:08;;;;;;;2.37;0.83;;;9.20;99.90;;;;;;5052788;28;20028;-67
2023/11/04 00:42:33;;;;;;;2.17;1.10;;;9.20;99.90;;;;;;5059423;28;20326;-68
2023/11/04 00:44:59;;;;;;;3.33;0.80;;;9.20;99.90;;;;;;5060147;28;20024;-69
2023/11/04 00:47:24;;;;;;;4.30;1.13;;;9.20;99.90;;;;;;5057672;28;20142;-67
2023/11/04 00:49:50;;;;;;;1.73;1.10;;;9.10;99.90;;;;;;5053023;28;20511;-67
2023/11/04 00:52:16;;;;;;;1.80;1.20;;;9.10;99.90;;;;;;5050706;28;20033;-67
2023/11/04 00:54:42;;;;;;;2.00;0.90;;;8.90;99.90;;;;;;5053872;28;20043;-67
2023/11/04 00:57:08;;;;;;;1.13;0.90;;;8.90;99.90;;;;;;5059405;28;20447;-67
2023/11/04 00:59:33;;;;;;;6.77;1.53;;;8.90;99.90;;;;;;5054211;28;20024;-68
2023/11/04 01:01:59;;;;;;;1.73;1.30;;;8.90;99.90;;;;;;5056354;28;20069;-66
2023/11/04 01:04:25;;;;;;;1.20;1.10;;;8.90;99.90;;;;;;5056827;28;20128;-67
2023/11/04 01:06:51;;;;;;;;;;;9.00;99.90;;;;;;5054135;28;20025;-68
2023/11/04 01:09:16;;;;;;;2.50;1.15;;;9.10;99.90;;;;;;5053358;28;19954;-67
2023/11/04 01:11:44;;;;;;;2.50;1.10;;;9.00;99.90;;;;;;5056371;28;20051;-67
2023/11/04 01:14:10;;;;;;;1.58;1.02;;;9.00;99.90;;;;;;5050581;28;20067;-67
2023/11/04 01:16:36;;;;;;;;;;;8.90;99.90;;;;;;5043807;28;20022;-69
2023/11/04 01:19:01;;;;;;;2.47;0.93;;;8.90;99.90;;;;;;5055202;28;19912;-69
2023/11/04 01:21:27;;;;;;;4.60;1.23;;;8.90;99.90;;;;;;5052424;28;20029;-68
2023/11/04 01:23:54;;;;;;;3.38;1.27;;;8.80;99.90;;;;;;5053869;28;20033;-69
2023/11/04 01:26:20;;;;;;;10.32;0.90;;;8.80;99.90;;;;;;5056130;28;20036;-68
2023/11/04 01:28:45;;;;;;;1.10;0.80;;;8.80;99.90;;;;;;5056263;28;20028;-69
2023/11/04 01:31:11;;;;;;;2.27;1.00;;;8.90;99.90;;;;;;5054007;28;20090;-68
2023/11/04 01:33:36;;;;;;;3.73;1.00;;;8.90;99.90;;;;;;5054295;28;20060;-68
2023/11/04 01:36:03;;;;;;;1.77;0.80;;;9.00;99.90;;;;;;5053797;28;20028;-68
2023/11/04 01:38:28;;;;;;;3.03;1.25;;;9.00;99.90;;;;;;5053031;28;20028;-68
2023/11/04 01:40:57;;;;;;;1.93;1.10;;;9.00;99.90;;;;;;5054565;28;20033;-67
2023/11/04 01:43:27;;;;;;;1.63;0.77;;;9.00;99.90;;;;;;5046082;28;20416;-69
2023/11/04 01:46:15;;;;;;;7.68;1.45;;;9.00;99.90;;;;;;5057504;28;20527;-67
2023/11/04 01:48:41;;;;;;;1.38;0.77;;;9.00;99.90;;;;;;5051954;28;20027;-69
2023/11/04 01:51:07;;;;;;;;;;;9.10;99.90;;;;;;5047401;28;20508;-68
2023/11/04 01:53:34;;;;;;;5.45;0.75;;;9.10;99.90;;;;;;5057590;28;19908;-67
2023/11/04 01:56:01;;;;;;;6.18;0.90;;;9.10;99.90;;;;;;5048846;28;20475;-68
2023/11/04 01:58:26;;;;;;;;;;;9.10;99.90;;;;;;5052599;28;20047;-68
2023/11/04 02:00:52;;;;;;;1.45;0.85;;;9.20;99.90;;;;;;5054029;28;20388;-67
2023/11/04 02:03:18;;;;;;;1.70;0.70;;;9.10;99.90;;;;;;5053031;28;20055;-68
2023/11/04 02:05:43;;;;;;;4.17;1.23;;;9.10;99.90;;;;;;5053386;28;20021;-68
2023/11/04 02:08:09;;;;;;;3.17;0.83;;;9.20;99.90;;;;;;5053787;28;20499;-68
2023/11/04 02:10:35;;;;;;;1.60;0.98;;;9.10;99.90;;;;;;5057748;28;20580;-68
2023/11/04 02:13:01;;;;;;;2.13;0.93;;;9.10;99.90;;;;;;5049616;28;20041;-67
2023/11/04 02:15:27;;;;;;;;;;;9.10;99.90;;;;;;5049001;28;20040;-69
2023/11/04 02:17:52;;;;;;;4.60;1.00;;;9.10;99.90;;;;;;5057653;28;19905;-67
2023/11/04 02:20:20;;;;;;;2.40;0.70;;;9.20;99.90;;;;;;5029970;28;20021;-67
2023/11/04 02:22:46;;;;;;;1.40;0.60;;;9.20;99.90;;;;;;5028224;28;20120;-68
2023/11/04 02:25:12;;;;;;;2.00;0.77;;;9.20;99.90;;;;;;5028232;28;20124;-66
2023/11/04 02:27:42;;;;;;;2.35;0.70;;;9.20;99.90;;;;;;5027439;28;20116;-67
2023/11/04 02:30:08;;;;;;;2.42;1.10;;;9.20;99.90;;;;;;5042469;28;20104;-66
2023/11/04 02:32:33;;;;;;;0.80;0.65;;;9.20;99.90;;;;;;5047845;28;20694;-68
2023/11/04 02:35:03;;;;;;;2.90;0.97;;;9.20;99.90;;;;;;5047341;28;20033;-66
2023/11/04 02:37:29;;;;;;;1.70;0.80;;;9.10;99.90;;;;;;5047049;28;20644;-67
2023/11/04 02:39:55;;;;;;;10.53;1.10;;;9.20;99.90;;;;;;5047549;28;20033;-66
2023/11/04 02:42:20;;;;;;;1.70;0.90;;;9.20;99.90;;;;;;5046821;28;20535;-66
2023/11/04 02:44:46;;;;;;;1.93;0.70;;;9.10;99.90;;;;;;5047720;28;20036;-66
2023/11/04 02:47:11;;;;;;;2.57;0.90;;;9.10;99.90;;;;;;5047549;28;20033;-67
2023/11/04 02:49:37;;;;;;;2.03;1.10;;;9.20;99.90;;;;;;5047800;28;20117;-66
2023/11/04 02:52:03;;;;;;;1.97;0.90;;;9.10;99.90;;;;;;5048153;28;20035;-67
2023/11/04 02:54:28;;;;;;;1.83;0.50;;;9.10;99.90;;;;;;5046779;28;20032;-67
2023/11/04 02:56:54;;;;;;;1.53;0.60;;;9.20;99.90;;;;;;5046954;28;20032;-66
2023/11/04 02:59:20;;;;;;;1.35;0.82;;;9.20;99.90;;;;;;5047580;28;20535;-66
2023/11/04 03:01:46;;;;;;;0.97;0.70;;;9.10;99.90;;;;;;5046918;28;20036;-66
2023/11/04 03:04:12;;;;;;;1.20;0.67;;;9.20;99.90;;;;;;5038917;28;20037;-66
2023/11/04 03:06:38;;;;;;;;;;;9.10;99.90;;;;;;5039858;28;20032;-67
2023/11/04 03:09:04;;;;;;;1.70;0.70;;;9.20;99.90;;;;;;5036873;28;19916;-66
2023/11/04 03:11:30;;;;;;;1.58;0.68;;;9.20;99.90;;;;;;5036640;28;20139;-66
2023/11/04 03:13:55;;;;;;;5.70;0.97;;;9.20;99.90;;;;;;5043159;28;20068;-66
2023/11/04 03:16:21;;;;;;;4.27;0.73;;;9.20;99.90;;;;;;5037015;28;20038;-66
2023/11/04 03:18:47;;;;;;;2.00;0.70;;;9.20;99.90;;;;;;5036779;28;20043;-66
2023/11/04 03:21:13;;;;;;;3.33;0.50;;;9.20;99.90;;;;;;5036921;28;20508;-66
2023/11/04 03:23:39;;;;;;;0.60;0.50;;;9.20;99.90;;;;;;5027462;28;20033;-65
2023/11/04 03:26:07;;;;;;;1.85;0.57;;;9.20;99.90;;;;;;5037451;28;20033;-66
2023/11/04 03:28:34;;;;;;;0.82;0.57;;;9.20;99.90;;;;;;5034813;28;20412;-68
2023/11/04 03:31:01;;;;;;;2.75;0.80;;;9.30;99.90;;;;;;5041396;28;20017;-66
2023/11/04 03:33:27;;;;;;;1.17;0.73;;;9.30;99.90;;;;;;5049336;28;20071;-67
2023/11/04 03:35:54;;;;;;;1.67;0.95;;;9.30;99.90;;;;;;5037052;28;20489;-66
2023/11/04 03:38:19;;;;;;;1.13;0.50;;;9.20;99.90;;;;;;5046789;28;20082;-67
2023/11/04 03:40:45;;;;;;;1.13;0.67;;;9.20;99.90;;;;;;5043721;28;20029;-66
2023/11/04 03:43:12;;;;;;;2.07;0.90;;;9.30;99.90;;;;;;5039710;28;20459;-65
2023/11/04 03:45:37;;;;;;;;;;;9.20;99.90;;;;;;5046628;28;20033;-65
2023/11/04 03:48:03;;;;;;;1.90;0.75;;;9.20;99.90;;;;;;5052860;28;19912;-66
2023/11/04 03:50:29;;;;;;;1.02;0.60;;;9.20;99.90;;;;;;5044932;28;20043;-67
2023/11/04 03:52:55;;;;;;;5.10;0.57;;;9.10;99.90;;;;;;5050315;28;20033;-66
2023/11/04 03:55:21;;;;;;;4.00;0.70;;;9.10;99.90;;;;;;5041470;28;20033;-65
2023/11/04 03:57:47;;;;;;;1.92;0.63;;;9.20;99.90;;;;;;5048791;28;20036;-65
2023/11/04 04:00:14;;;;;;;0.60;0.57;;;9.10;99.90;;;;;;5039196;28;20033;-66
2023/11/04 04:02:40;;;;;;;1.02;0.70;;;9.10;99.90;;;;;;5035341;28;20296;-65
2023/11/04 04:05:06;;;;;;;1.23;0.68;;;9.20;99.90;;;;;;5037475;28;20029;-66
2023/11/04 04:07:33;;;;;;;;;;;9.20;99.90;;;;;;5047387;28;20037;-65
2023/11/04 04:09:59;;;;;;;2.33;0.90;;;9.10;99.90;;;;;;5044577;28;19916;-66
2023/11/04 04:12:24;;;;;;;1.45;0.75;;;9.00;99.90;;;;;;5037794;28;20108;-65
2023/11/04 04:14:50;;;;;;;3.27;1.10;;;9.00;99.90;;;;;;5044025;28;20479;-66
2023/11/04 04:17:16;;;;;;;3.27;0.63;;;9.00;99.90;;;;;;5041292;28;20472;-66
2023/11/04 04:19:41;;;;;;;1.87;0.93;;;8.90;99.90;;;;;;5047612;28;20033;-67
2023/11/04 04:22:08;;;;;;;2.87;0.80;;;8.90;99.90;;;;;;5047768;28;20036;-66
2023/11/04 04:24:33;;;;;;;1.15;0.80;;;8.90;99.90;;;;;;5043299;28;20042;-66
2023/11/04 04:26:59;;;;;;;8.20;0.73;;;8.90;99.90;;;;;;5045260;28;20447;-66
2023/11/04 04:29:27;;;;;;;0.93;0.50;;;8.90;99.90;;;;;;5043999;28;20515;-66
2023/11/04 04:31:53;;;;;;;3.95;0.73;;;9.00;99.90;;;;;;5047444;28;20037;-66
2023/11/04 04:34:19;;;;;;;3.40;0.63;;;8.80;99.90;;;;;;5044475;28;20413;-67
2023/11/04 04:36:45;;;;;;;5.10;0.80;;;8.70;99.90;;;;;;5046527;28;20021;-66
2023/11/04 04:39:11;;;;;;;2.42;0.80;;;8.80;99.90;;;;;;5053184;28;20274;-66
2023/11/04 04:41:37;;;;;;;1.52;0.65;;;8.90;99.90;;;;;;5045312;28;20051;-65
2023/11/04 04:44:03;;;;;;;1.37;0.77;;;8.90;99.90;;;;;;5037587;28;20040;-67
2023/11/04 04:46:32;;;;;;;1.80;0.50;;;8.90;99.90;;;;;;5052199;28;20756;-66
2023/11/04 04:48:58;;;;;;;2.75;0.65;;;9.00;99.90;;;;;;5050136;28;20028;-66
2023/11/04 04:51:23;;;;;;;2.13;1.05;;;9.00;99.90;;;;;;5040381;28;20036;-66
2023/11/04 04:53:49;;;;;;;1.90;0.57;;;9.00;99.90;;;;;;5054222;28;20033;-66
2023/11/04 04:56:15;;;;;;;0.43;0.40;;;8.90;99.90;;;;;;5052317;28;20017;-66
2023/11/04 04:58:46;;;;;;;2.70;0.60;;;9.00;99.90;;;;;;5036931;28;20808;-66
2023/11/04 05:01:22;;;;;;;1.98;0.60;;;9.00;99.90;;;;;;5050589;28;20561;-66
2023/11/04 05:03:49;;;;;;;1.13;0.50;;;9.00;99.90;;;;;;5048707;28;20047;-66
2023/11/04 05:06:14;;;;;;;0.75;0.68;;;9.00;99.90;;;;;;5041192;28;20433;-66
2023/11/04 05:08:43;;;;;;;1.23;0.70;;;9.00;99.90;;;;;;5046072;28;20025;-69
2023/11/04 05:11:09;;;;;;;1.13;0.85;;;9.00;99.90;;;;;;5044053;28;20124;-69
2023/11/04 05:13:36;;;;;;;4.82;0.80;;;9.00;99.90;;;;;;5036404;28;20060;-66
2023/11/04 05:16:02;;;;;;;;;;;9.00;99.90;;;;;;5047196;28;20030;-66
2023/11/04 05:18:28;;;;;;;3.78;0.60;;;9.10;99.90;;;;;;5045006;28;19916;-65
2023/11/04 05:20:56;;;;;;;1.02;0.70;;;9.10;99.90;;;;;;5050436;28;20047;-66
2023/11/04 05:23:21;;;;;;;1.23;0.60;;;9.10;99.90;;;;;;5052464;28;20041;-66
2023/11/04 05:25:48;;;;;;;1.92;0.60;;;9.10;99.90;;;;;;5046008;28;20037;-66
2023/11/04 05:28:14;;;;;;;0.98;0.57;;;9.10;99.90;;;;;;5041382;28;20032;-66
2023/11/04 05:30:40;;;;;;;3.57;0.93;;;9.10;99.90;;;;;;5040257;28;20423;-66
2023/11/04 05:33:06;;;;;;;1.50;0.70;;;9.10;99.90;;;;;;5050441;28;20020;-65
2023/11/04 05:35:32;;;;;;;1.15;0.50;;;9.10;99.90;;;;;;5049612;28;20033;-66
2023/11/04 05:37:58;;;;;;;1.10;0.50;;;9.10;99.90;;;;;;5053859;28;20091;-67
2023/11/04 05:40:24;;;;;;;1.02;0.63;;;9.10;99.90;;;;;;5046820;28;20563;-67
2023/11/04 05:42:50;;;;;;;4.30;0.70;;;9.10;99.90;;;;;;5048087;28;20045;-67
2023/11/04 05:45:16;;;;;;;1.92;0.70;;;9.10;99.90;;;;;;5041334;28;20116;-67
2023/11/04 05:47:44;;;;;;;3.10;0.80;;;9.10;99.90;;;;;;5041230;28;20605;-66
2023/11/04 05:50:10;;;;;;;0.30;0.30;;;9.10;99.90;;;;;;5042283;28;20322;-65
2023/11/04 05:52:36;;;;;;;4.20;0.60;;;9.10;99.90;;;;;;5044867;28;20433;-67
2023/11/04 05:55:01;;;;;;;2.80;0.50;;;9.10;99.90;;;;;;5046980;28;20028;-66
2023/11/04 05:57:27;;;;;;;2.00;0.80;;;9.10;99.90;;;;;;5048806;28;20398;-66
2023/11/04 05:59:52;;;;;;;0.73;0.50;;;9.20;99.90;;;;;;5051240;28;20087;-66
2023/11/04 06:02:18;;;;;;;0.93;0.70;;;9.10;99.90;;;;;;5043440;28;20560;-66
2023/11/04 06:04:43;;;;;;;0.70;0.40;;;9.10;99.90;;;;;;5047104;28;20029;-66
2023/11/04 06:07:09;;;;;;;1.33;0.50;;;9.10;99.90;;;;;;5047418;28;20052;-66
2023/11/04 06:09:35;;;;;;;0.80;0.60;;;9.10;99.90;;;;;;5043382;28;20033;-66
2023/11/04 06:12:00;;;;;;;5.17;1.40;;;9.10;99.90;;;;;;5041938;28;20041;-66
2023/11/04 06:14:27;;;;;;;0.77;0.50;;;9.20;99.90;;;;;;5039714;28;20021;-66
2023/11/04 06:16:52;;;;;;;1.23;0.60;;;9.20;99.90;;;;;;5049682;28;20040;-66
2023/11/04 06:19:18;;;;;;;2.07;0.60;;;9.20;99.90;;;;;;5042180;28;20026;-66
2023/11/04 06:21:45;;;;;;;0.83;0.53;;;9.20;99.90;;;;;;5053956;28;20350;-66
2023/11/04 06:24:11;;;;;;;2.25;0.65;;;9.10;99.90;;;;;;5046397;28;20063;-67
2023/11/04 06:26:37;;;;;;;2.03;0.40;;;9.10;99.90;;;;;;5033506;28;20016;-67
2023/11/04 06:29:04;;;;;;;4.50;0.60;;;9.20;99.90;;;;;;5042676;28;20102;-66
2023/11/04 06:31:30;;;;;;;1.77;0.80;;;9.20;99.90;;;;;;5048126;28;20027;-66
2023/11/04 06:33:55;;;;;;;1.30;0.60;;;9.20;99.90;;;;;;5044486;28;20409;-66
2023/11/04 06:36:21;;;;;;;4.60;0.80;;;9.30;99.90;;;;;;5051462;28;20024;-66
2023/11/04 06:38:47;;;;;;;3.73;0.40;;;9.30;99.90;;;;;;5045953;28;20037;-66
2023/11/04 06:41:16;;;;;;;4.38;0.45;;;9.30;99.90;;;;;;5051792;28;20122;-66
2023/11/04 06:43:44;;;;;;;4.53;0.57;;;9.30;99.90;;;;;;5041233;28;20068;-66
2023/11/04 06:46:10;;;;;;;2.45;0.60;;;9.30;99.90;;;;;;5040097;28;20538;-66
2023/11/04 06:48:36;;;;;;;2.17;0.75;;;9.40;99.90;;;;;;5043271;28;20037;-67
2023/11/04 06:51:01;;;;;;;1.17;0.63;;;9.30;99.90;;;;;;5049431;28;20035;-66
2023/11/04 06:53:27;;;;;;;1.57;0.77;;;9.40;99.90;;;;;;5040884;28;20348;-67
2023/11/04 06:55:55;;;;;;;1.35;0.68;;;9.40;99.90;;;;;;5043156;28;20047;-67
2023/11/04 06:58:21;;;;;;;2.17;0.57;;;9.50;99.90;;;;;;5046853;28;20033;-68
2023/11/04 07:00:47;;;;;;;6.73;0.97;;;9.50;99.90;;;;;;5043138;28;20404;-66
2023/11/04 07:03:12;;;;;;;4.13;0.80;;;9.50;99.90;;;;;;5052192;28;20076;-68
2023/11/04 07:05:38;;;;;;;2.20;0.87;;;9.60;99.90;;;;;;5044953;28;20037;-67
2023/11/04 07:08:04;;;;;;;2.35;1.20;;;9.50;99.90;;;;;;5050001;28;20393;-67
2023/11/04 07:10:30;;;;;;;6.50;1.33;;;9.60;99.90;;;;;;5084542;28;20029;-66
2023/11/04 07:12:56;;;;;;;3.63;0.77;;;9.60;99.90;;;;;;5045891;28;20078;-68
2023/11/04 07:15:22;;;;;;;6.22;1.75;;;9.70;99.90;;;;;;5050260;28;20106;-69
2023/11/04 07:17:48;;;;;;;1.53;0.73;;;9.70;99.90;;;;;;5048104;28;20476;-67
2023/11/04 07:20:14;;;;;;;1.73;1.10;;;9.70;99.90;;;;;;5043376;28;20497;-68
2023/11/04 07:22:39;;;;;;;2.70;1.10;;;9.70;99.90;;;;;;5038701;28;20036;-69
2023/11/04 07:25:05;;;;;;;2.87;1.47;;;9.60;99.90;;;;;;5045545;28;20081;-70
2023/11/04 07:27:31;;;;;;;3.33;1.20;;;9.60;99.90;;;;;;5038018;28;20048;-70
2023/11/04 07:29:56;;;;;;;2.63;1.50;;;9.60;99.90;;;;;;5048551;28;20044;-69
2023/11/04 07:32:22;;;;;;;5.07;1.27;;;9.50;99.90;;;;;;5046655;28;20500;-68
2023/11/04 07:34:48;;;;;;;5.75;1.10;;;9.50;99.90;;;;;;5045896;28;20036;-69
2023/11/04 07:37:14;;;;;;;10.40;1.83;;;9.50;99.90;;;;;;5047506;28;20060;-68
2023/11/04 07:39:40;;;;;;;2.67;1.00;;;9.50;99.90;;;;;;5046789;28;20083;-67
2023/11/04 07:42:06;;;;;;;6.53;1.38;;;9.40;99.90;;;;;;5043453;28;20045;-68
2023/11/04 07:44:32;;;;;;;3.72;1.00;;;9.40;99.90;;;;;;5044897;28;20389;-67
2023/11/04 07:47:00;;;;;;;2.33;0.90;;;9.40;99.90;;;;;;5050592;28;20170;-68
2023/11/04 07:49:27;;;;;;;2.78;1.13;;;9.40;99.90;;;;;;5040421;28;20257;-69
2023/11/04 07:51:54;;;;;;;5.55;1.00;;;9.40;99.90;;;;;;5038555;28;20033;-68
2023/11/04 07:54:20;;;;;;;3.78;1.02;;;9.40;99.90;;;;;;5049194;28;20045;-69
2023/11/04 07:56:45;;;;;;;2.58;1.20;;;9.40;99.90;;;;;;5052300;28;20023;-67
2023/11/04 07:59:11;;;;;;;2.85;1.00;;;9.40;99.90;;;;;;5037780;28;20431;-67
2023/11/04 08:01:37;;;;;;;1.33;0.93;;;9.30;99.90;;;;;;5060804;28;20033;-68
2023/11/04 08:04:03;;;;;;;1.70;1.13;;;9.30;99.90;;;;;;5038874;28;20138;-68
2023/11/04 08:06:30;;;;;;;2.83;1.25;;;9.30;99.90;;;;;;5046166;28;20175;-66
2023/11/04 08:08:56;;;;;;;5.95;1.25;;;9.40;99.90;;;;;;5045538;28;20033;-69
2023/11/04 08:11:22;;;;;;;1.85;0.88;;;9.40;99.90;;;;;;5040735;28;20577;-70
2023/11/04 08:13:48;;;;;;;2.08;0.98;;;9.50;99.90;;;;;;5041366;28;20064;-67
2023/11/04 08:16:13;;;;;;;1.13;0.77;;;9.60;99.90;;;;;;5044561;28;20063;-67
2023/11/04 08:18:39;;;;;;;1.70;0.80;;;9.60;99.90;;;;;;5040481;28;20037;-69
2023/11/04 08:21:05;;;;;;;8.98;1.73;;;9.70;99.90;;;;;;5035392;28;20028;-68
2023/11/04 08:23:31;;;;;;;2.35;0.75;;;9.60;99.90;;;;;;5043324;28;20057;-70
2023/11/04 08:25:57;;;;;;;4.30;0.67;;;9.60;99.90;;;;;;5041421;28;20122;-67
2023/11/04 08:28:22;;;;;;;2.77;0.90;;;9.50;99.90;;;;;;5049445;28;20025;-66
2023/11/04 08:30:51;;;;;;;2.03;0.87;;;9.60;99.90;;;;;;5052743;28;20021;-71
2023/11/04 08:33:17;;;;;;;1.67;0.63;;;9.50;99.90;;;;;;5048097;28;20029;-70
2023/11/04 08:35:43;;;;;;;1.55;0.70;;;9.50;99.90;;;;;;5046217;28;20050;-66
2023/11/04 08:38:09;;;;;;;1.77;0.60;;;9.50;99.90;;;;;;5049783;28;20565;-69
2023/11/04 08:40:34;;;;;;;6.00;1.10;;;9.50;99.90;;;;;;5046024;28;20545;-70
2023/11/04 08:43:00;;;;;;;1.60;0.70;;;9.40;99.90;;;;;;5046633;28;20495;-70
2023/11/04 08:45:25;;;;;;;3.90;0.93;;;9.40;99.90;;;;;;5047441;28;20632;-70
2023/11/04 08:47:52;;;;;;;1.67;1.00;;;9.40;99.90;;;;;;5043602;28;20059;-71
2023/11/04 08:50:17;;;;;;;4.97;0.75;;;9.50;99.90;;;;;;5043108;28;20040;-71
2023/11/04 08:52:43;;;;;;;4.20;0.80;;;9.40;99.90;;;;;;5047980;28;20026;-71
2023/11/04 08:55:10;;;;;;;1.73;0.60;;;9.30;99.90;;;;;;5052007;28;20461;-69
2023/11/04 08:57:36;;;;;;;2.97;0.70;;;9.30;99.90;;;;;;5049087;28;20120;-72
2023/11/04 09:00:05;;;;;;;1.80;0.93;;;9.30;99.90;;;;;;5043649;28;20119;-70
2023/11/04 09:02:31;;;;;;;1.38;0.73;;;9.30;99.90;;;;;;5053733;28;20033;-69
2023/11/04 09:04:57;;;;;;;3.03;0.85;;;9.20;99.90;;;;;;5046482;28;20488;-69
2023/11/04 09:07:24;;;;;;;3.63;1.00;;;9.30;99.90;;;;;;5046112;28;20044;-70
2023/11/04 09:09:49;;;;;;;2.88;0.88;;;9.30;99.90;;;;;;5042835;28;20567;-66
2023/11/04 09:12:16;;;;;;;2.83;0.90;;;9.10;99.90;;;;;;5047256;28;20056;-65
2023/11/04 09:14:41;;;;;;;;;;;9.00;99.90;;;;;;5054532;28;20029;-70
2023/11/04 09:17:07;;;;;;;3.42;1.08;;;8.90;99.90;;;;;;5044844;28;19913;-68
2023/11/04 09:19:33;;;;;;;5.07;1.27;;;8.80;99.90;;;;;;5043265;28;20548;-70
2023/11/04 09:21:58;;;;;;;1.17;0.80;;;8.80;99.90;;;;;;5049377;28;20123;-66
2023/11/04 09:24:24;;;;;;;1.20;0.70;;;8.90;99.90;;;;;;5050995;28;20399;-70
2023/11/04 09:26:49;;;;;;;3.17;1.17;;;9.00;99.90;;;;;;5050741;28;20104;-69
2023/11/04 09:29:15;;;;;;;3.67;1.15;;;9.10;99.90;;;;;;5050608;28;20024;-68
2023/11/04 09:31:41;;;;;;;2.63;0.87;;;9.20;99.90;;;;;;5046833;28;20110;-67
2023/11/04 09:34:10;;;;;;;1.87;0.70;;;9.30;99.90;;;;;;5046016;28;20191;-68
2023/11/04 09:36:35;;;;;;;2.42;1.10;;;9.60;99.90;;;;;;5049554;28;20081;-67
2023/11/04 09:39:01;;;;;;;2.03;0.90;;;9.70;99.90;;;;;;5045188;28;20518;-67
2023/11/04 09:41:27;;;;;;;0.80;0.70;;;10.10;99.90;;;;;;5048410;28;20473;-68
2023/11/04 09:43:53;;;;;;;1.17;0.70;;;10.50;99.90;;;;;;5045847;28;20048;-68
2023/11/04 09:46:19;;;;;;;2.33;0.80;;;10.90;99.90;;;;;;5047941;28;20499;-68
2023/11/04 09:48:44;;;;;;;5.25;1.10;;;11.40;99.90;;;;;;5049628;28;20291;-68
2023/11/04 09:51:14;;;;;;;1.90;1.13;;;12.30;99.90;;;;;;5042955;28;20040;-68
2023/11/04 09:53:52;;;;;;;7.97;0.80;;;11.90;99.90;;;;;;5042053;28;20307;-68
2023/11/04 09:56:17;;;;;;;1.48;0.80;;;11.90;99.90;;;;;;5046477;28;20032;-68
2023/11/04 09:58:43;;;;;;;1.33;0.60;;;12.00;99.90;;;;;;5046714;28;20018;-68
2023/11/04 10:01:09;;;;;;;5.60;0.80;;;11.80;99.90;;;;;;5052003;28;20066;-68
2023/11/04 10:03:34;;;;;;;3.40;0.70;;;12.10;99.90;;;;;;5051562;28;20029;-68
2023/11/04 10:06:00;;;;;;;1.40;0.60;;;12.20;99.90;;;;;;5046836;28;20314;-68
2023/11/04 10:08:26;;;;;;;15.27;0.90;;;12.20;99.90;;;;;;5041279;28;20405;-68
2023/11/04 10:10:53;;;;;;;1.97;0.60;;;12.30;99.90;;;;;;5052941;28;20104;-68
2023/11/04 10:13:18;;;;;;;3.58;1.45;;;12.40;99.90;;;;;;5048055;28;20043;-67
2023/11/04 10:15:45;;;;;;;3.23;1.13;;;12.20;99.90;;;;;;5050725;28;20038;-66
2023/11/04 10:18:11;;;;;;;2.50;0.57;;;12.10;99.90;;;;;;5048839;28;20050;-66
2023/11/04 10:20:37;;;;;;;2.20;0.63;;;12.10;99.90;;;;;;5062864;28;20037;-67
2023/11/04 10:23:03;;;;;;;8.88;1.08;;;12.10;99.90;;;;;;5047289;28;20048;-68
2023/11/04 10:25:29;;;;;;;2.40;0.70;;;12.00;99.60;;;;;;5053134;28;20068;-67
2023/11/04 10:27:55;;;;;;;;;;;12.00;99.90;;;;;;5049799;28;20484;-68
2023/11/04 10:30:21;;;;;;;2.10;0.52;;;12.10;98.80;;;;;;5045863;28;19919;-68
2023/11/04 10:32:51;;;;;;;1.30;0.70;;;12.10;97.80;;;;;;5065240;28;20036;-67
2023/11/04 10:35:18;;;;;;;2.75;0.60;;;12.30;97.30;;;;;;5037747;28;20033;-67
2023/11/04 10:37:47;;;;;;;2.10;0.60;;;12.60;97.40;;;;;;5044096;28;20516;-67
2023/11/04 10:40:16;;;;;;;5.15;0.77;;;12.50;97.10;;;;;;5049490;28;20036;-66
2023/11/04 10:42:49;;;;;;;0.98;0.50;;;12.40;95.30;;;;;;5043323;28;20935;-68
2023/11/04 10:45:36;;;;;;;3.60;0.52;;;12.40;97.10;;;;;;5041327;28;20025;-68
2023/11/04 10:48:09;;;;;;;3.28;0.80;;;12.40;97.00;;;;;;5063713;28;20811;-68
2023/11/04 10:50:43;;;;;;;4.03;1.13;;;12.50;97.90;;;;;;5044421;28;20030;-68
2023/11/04 10:53:37;;;;;;;2.30;0.90;;;12.50;95.30;;;;;;5049534;28;20752;-67
2023/11/04 10:56:18;;;;;;;3.28;0.70;;;12.50;96.50;;;;;;5041275;28;20051;-68
2023/11/04 10:58:59;;;;;;;3.88;1.00;;;12.50;96.70;;;;;;5046958;28;20030;-68
2023/11/04 11:01:26;;;;;;;6.13;0.90;;;12.60;95.20;;;;;;5044806;28;20028;-69
2023/11/04 11:03:53;;;;;;;2.47;0.73;;;12.60;94.60;;;;;;5056717;28;20064;-68
2023/11/04 11:06:20;;;;;;;4.70;0.52;;;12.60;95.30;;;;;;5047991;28;20028;-67
2023/11/04 11:08:47;;;;;;;4.05;0.85;;;12.70;94.20;;;;;;5046736;28;20030;-67
2023/11/04 11:12:02;;;;;;;3.22;1.30;;;12.60;94.70;;;;;;5045907;28;20162;-67
2023/11/04 11:14:28;;;;;;;2.20;0.60;;;12.50;94.50;;;;;;5051640;28;20123;-67
2023/11/04 11:17:00;;;;;;;2.17;0.73;;;12.50;94.00;;;;;;5040640;28;20141;-68
2023/11/04 11:19:26;;;;;;;4.55;0.85;;;12.50;94.90;;;;;;5046539;28;20156;-68
2023/11/04 11:21:52;;;;;;;20.67;1.07;;;12.40;95.00;;;;;;5047586;28;20630;-69
2023/11/04 11:24:20;;;;;;;2.88;0.90;;;12.50;93.00;;;;;;5039851;28;20068;-69
2023/11/04 11:26:50;;;;;;;4.90;1.38;;;12.50;93.70;;;;;;5047701;28;20029;-70
2023/11/04 11:29:20;;;;;;;3.78;0.80;;;12.40;94.90;;;;;;5047373;28;20059;-70
2023/11/04 11:31:46;;;;;;;1.63;0.60;;;12.40;94.80;;;;;;5053112;28;20497;-67
2023/11/04 11:34:12;;;;;;;4.65;0.80;;;12.40;95.30;;;;;;5035822;28;20120;-69
2023/11/04 11:36:39;;;;;;;6.85;1.23;;;12.40;95.70;;;;;;5046347;28;20071;-68
2023/11/04 11:39:06;;;;;;;;;;;12.60;94.80;;;;;;5053779;28;20094;-69
2023/11/04 11:41:37;;;;;;;3.30;0.60;;;12.70;93.30;;;;;;5049937;28;20304;-68
2023/11/04 11:44:03;;;;;;;1.98;0.60;;;13.00;92.80;;;;;;5048957;28;20332;-68
2023/11/04 11:46:29;;;;;;;3.60;0.80;;;13.20;92.20;;;;;;5041647;28;20065;-66
2023/11/04 11:48:55;;;;;;;7.15;0.77;;;13.30;91.80;;;;;;5046285;28;20044;-69
2023/11/04 11:51:22;;;;;;;5.70;1.03;;;13.40;92.70;;;;;;5038912;28;20509;-67
2023/11/04 11:53:48;;;;;;;;;;;13.60;91.10;;;;;;5045225;28;20515;-68
2023/11/04 11:56:14;;;;;;;5.43;0.60;;;13.80;91.40;;;;;;5045861;28;19913;-70
2023/11/04 11:58:39;;;;;;;3.58;0.95;;;14.00;90.00;;;;;;5045830;28;20111;-69
2023/11/04 12:01:08;;;;;;;7.23;1.40;;;14.20;89.30;;;;;;5052268;28;20098;-69
2023/11/04 12:03:35;;;;;;;2.38;0.60;;;14.30;84.80;;;;;;5049498;28;20300;-70
2023/11/04 12:06:02;;;;;;;17.15;1.05;;;14.40;86.10;;;;;;5042906;28;20452;-68
2023/11/04 12:08:28;;;;;;;1.52;0.60;;;14.30;83.90;;;;;;5047484;28;20039;-69
2023/11/04 12:10:54;;;;;;;2.13;0.52;;;14.00;86.00;;;;;;5046682;28;20492;-68
2023/11/04 12:13:23;;;;;;;2.30;0.93;;;13.90;84.90;;;;;;5049227;28;20048;-69
2023/11/04 12:15:48;;;;;;;5.93;0.77;;;13.70;84.70;;;;;;5044324;28;20075;-68
2023/11/04 12:18:14;;;;;;;6.57;0.73;;;13.60;85.30;;;;;;5045440;28;20504;-67
2023/11/04 12:20:41;;;;;;;4.57;0.60;;;13.50;85.10;;;;;;5049588;28;20036;-68
2023/11/04 12:23:13;;;;;;;5.32;0.80;;;13.40;84.80;;;;;;5044517;28;20055;-68
2023/11/04 12:25:40;;;;;;;7.32;1.00;;;13.40;86.20;;;;;;5046426;28;20018;-70
2023/11/04 12:28:08;;;;;;;3.75;0.57;;;13.30;86.30;;;;;;5051433;28;20041;-69
2023/11/04 12:30:33;;;;;;;4.70;0.80;;;13.30;86.60;;;;;;5049564;28;20021;-67
2023/11/04 12:33:01;;;;;;;3.20;1.30;;;13.30;86.70;;;;;;5046233;28;20051;-69
2023/11/04 12:35:29;;;;;;;6.22;0.77;;;13.30;87.80;;;;;;5050629;28;20500;-69
2023/11/04 12:37:55;;;;;;;6.10;0.50;;;13.10;91.50;;;;;;5047658;28;20032;-69
2023/11/04 12:40:21;;;;;;;2.50;0.63;;;12.90;91.50;;;;;;5045029;28;20029;-69
2023/11/04 12:42:48;;;;;;;4.07;0.90;;;12.70;92.90;;;;;;5045798;28;20063;-69
2023/11/04 12:45:15;;;;;;;2.85;0.63;;;12.60;94.40;;;;;;5044148;28;20079;-68
2023/11/04 12:47:42;;;;;;;2.90;0.70;;;12.50;95.10;;;;;;5059078;28;20051;-70
2023/11/04 12:50:11;;;;;;;3.47;0.85;;;12.40;94.70;;;;;;5044088;28;20029;-69
2023/11/04 12:52:37;;;;;;;4.50;0.60;;;12.20;97.00;;;;;;5046688;28;20036;-69
2023/11/04 12:55:03;;;;;;;4.35;1.05;;;11.90;99.20;;;;;;5047531;28;20400;-70